Time;durP1;ratioP1;P1;durP2;ratioP2;P2;SDS_P1;SDS_P2;PMS_P1;PMS_P2;Temp;Humidity;BMP_temperature;BMP_pressure;BME280_temperature;BME280_humidity;BME280_pressure;Samples;Min_cycle;Max_cycle;Signal;HPM_P1;HPM_P2
2022/01/28 00:03:42;;;;;;;11.50;3.70;;;22.00;62.90;;;;;;215322;1296;22602;-57
2022/01/28 00:08:48;;;;;;;12.10;3.50;;;21.90;63.40;;;;;;215096;1296;22695;-57
2022/01/28 00:13:58;;;;;;;8.80;3.40;;;21.90;63.60;;;;;;215226;1293;28599;-56
2022/01/28 00:40:50;;;;;;;9.20;3.30;;;21.60;63.70;;;;;;215223;1293;26585;-56
2022/01/28 00:45:55;;;;;;;9.10;3.40;;;21.60;64.60;;;;;;215115;1293;22612;-58
2022/01/28 00:50:59;;;;;;;8.80;3.20;;;21.90;64.30;;;;;;215187;1296;22593;-56
2022/01/28 00:56:06;;;;;;;8.30;3.10;;;22.20;64.10;;;;;;215258;1296;25431;-57
2022/01/28 01:01:12;;;;;;;6.70;3.00;;;22.40;64.20;;;;;;215252;1296;25360;-57
2022/01/28 01:06:21;;;;;;;9.00;3.40;;;22.50;63.80;;;;;;215371;1293;25388;-57
2022/01/28 01:11:27;;;;;;;7.40;2.80;;;22.60;64.40;;;;;;215191;1293;25507;-56
2022/01/28 01:16:39;;;;;;;5.80;2.70;;;22.70;62.90;;;;;;215274;1293;22669;-58
2022/01/28 01:21:43;;;;;;;5.70;2.50;;;22.80;62.80;;;;;;215169;1294;24361;-54
2022/01/28 01:26:47;;;;;;;7.80;2.30;;;22.90;62.80;;;;;;215290;1293;25328;-55
2022/01/28 01:32:00;;;;;;;10.70;3.40;;;22.90;62.00;;;;;;215222;1295;22589;-55
2022/01/28 01:37:04;;;;;;;5.20;2.50;;;22.90;62.60;;;;;;215283;1293;24300;-56
2022/01/28 01:42:19;;;;;;;6.70;2.70;;;22.90;62.00;;;;;;215372;1293;22616;-55
2022/01/28 01:52:46;;;;;;;6.30;2.50;;;23.00;62.20;;;;;;215212;1293;25464;-56
2022/01/28 01:57:51;;;;;;;6.90;2.20;;;22.90;62.00;;;;;;215047;1296;25462;-56
2022/01/28 02:02:55;;;;;;;5.80;2.00;;;23.00;61.60;;;;;;215373;1296;25600;-56
2022/01/28 02:08:05;;;;;;;5.70;2.50;;;23.00;61.10;;;;;;215248;1296;23121;-54
2022/01/28 02:13:09;;;;;;;5.20;2.50;;;23.00;61.20;;;;;;215269;1293;25600;-56
2022/01/28 02:18:13;;;;;;;4.70;2.10;;;23.10;60.60;;;;;;215419;1295;24366;-52
2022/01/28 02:23:20;;;;;;;7.10;2.30;;;23.10;60.30;;;;;;215260;1296;26845;-57
2022/01/28 02:28:25;;;;;;;7.00;2.10;;;23.10;60.40;;;;;;215397;1293;22586;-54
2022/01/28 02:33:29;;;;;;;7.60;2.50;;;23.00;60.00;;;;;;215180;1295;22609;-56
2022/01/28 02:38:35;;;;;;;5.10;2.00;;;23.10;59.90;;;;;;215417;1296;22760;-59
2022/01/28 02:49:03;;;;;;;5.70;2.40;;;23.10;59.60;;;;;;215363;1296;22701;-57
2022/01/28 02:54:16;;;;;;;5.00;2.40;;;23.10;59.60;;;;;;215289;1293;22827;-56
2022/01/28 02:59:20;;;;;;;5.50;2.10;;;23.10;59.80;;;;;;215317;1293;22610;-56
2022/01/28 03:10:02;;;;;;;6.00;2.10;;;23.10;58.70;;;;;;215027;1293;22658;-57
2022/01/28 03:15:08;;;;;;;5.10;2.10;;;23.10;58.90;;;;;;215326;1296;22735;-55
2022/01/28 03:25:22;;;;;;;4.40;2.00;;;23.20;58.20;;;;;;215347;1294;22630;-58
2022/01/28 03:30:26;;;;;;;3.70;1.70;;;23.20;58.20;;;;;;215206;1296;22684;-56
2022/01/28 03:35:37;;;;;;;5.30;1.70;;;23.30;57.80;;;;;;215003;1296;22644;-55
2022/01/28 03:40:42;;;;;;;5.00;2.00;;;23.20;57.80;;;;;;215236;1293;22638;-56
2022/01/28 03:45:50;;;;;;;4.50;1.60;;;23.30;57.70;;;;;;215583;1293;22572;-57
2022/01/28 03:51:04;;;;;;;4.10;1.90;;;23.20;57.50;;;;;;215402;1293;24300;-56
2022/01/28 03:56:16;;;;;;;4.60;1.80;;;23.30;57.50;;;;;;215390;1296;23107;-56
2022/01/28 04:01:27;;;;;;;5.20;2.00;;;23.30;57.20;;;;;;215378;1293;24916;-56
2022/01/28 04:12:11;;;;;;;4.70;2.00;;;23.30;56.90;;;;;;215302;1293;22602;-57
2022/01/28 04:17:23;;;;;;;4.20;1.90;;;23.30;56.60;;;;;;215385;1293;26531;-56
2022/01/28 04:22:29;;;;;;;3.30;1.40;;;23.30;56.80;;;;;;215279;1293;25417;-55
2022/01/28 04:27:35;;;;;;;4.50;1.90;;;23.30;56.60;;;;;;215296;1293;25480;-56
2022/01/28 04:32:39;;;;;;;4.10;1.40;;;23.30;56.50;;;;;;215142;1296;25122;-57
2022/01/28 04:43:08;;;;;;;3.90;1.80;;;23.40;55.90;;;;;;215276;1294;22676;-55
2022/01/28 04:48:21;;;;;;;5.20;1.50;;;23.40;55.90;;;;;;215418;1293;26667;-57
2022/01/28 04:53:43;;;;;;;3.30;1.70;;;23.30;55.60;;;;;;215452;1292;22578;-55
2022/01/28 05:30:07;;;;;;;2.80;1.40;;;23.40;55.30;;;;;;215530;1293;25438;-58
2022/01/28 05:35:16;;;;;;;2.40;1.10;;;23.50;55.00;;;;;;215433;1296;25556;-57
2022/01/28 05:40:20;;;;;;;2.60;1.60;;;23.50;54.50;;;;;;215452;1293;23069;-58
2022/01/28 05:45:24;;;;;;;3.30;1.60;;;23.50;54.40;;;;;;215327;1293;24337;-57
2022/01/28 05:50:27;;;;;;;3.70;1.60;;;23.40;54.30;;;;;;215358;1293;24301;-57
2022/01/28 05:55:31;;;;;;;4.10;1.50;;;23.40;54.20;;;;;;215203;1294;188736;-56
2022/01/28 06:00:34;;;;;;;3.40;1.40;;;23.40;54.20;;;;;;215400;1293;24347;-57
2022/01/28 06:05:38;;;;;;;3.30;1.40;;;23.50;54.10;;;;;;215378;1293;22767;-56
2022/01/28 06:10:42;;;;;;;3.20;1.70;;;23.40;54.00;;;;;;215308;1293;24361;-59
2022/01/28 06:15:45;;;;;;;3.50;1.50;;;23.40;54.00;;;;;;215270;1293;22665;-56
2022/01/28 06:20:54;;;;;;;6.00;1.80;;;23.50;54.20;;;;;;215530;1293;22567;-54
2022/01/28 06:26:03;;;;;;;3.10;1.50;;;23.50;53.80;;;;;;215294;1293;22697;-58
2022/01/28 06:31:07;;;;;;;2.50;1.20;;;23.50;53.80;;;;;;214948;1294;22792;-56
2022/01/28 06:36:14;;;;;;;3.00;1.10;;;23.50;54.00;;;;;;215525;1296;22763;-56
2022/01/28 06:41:18;;;;;;;3.30;1.30;;;23.40;53.60;;;;;;215294;1293;22601;-56
2022/01/28 06:46:21;;;;;;;2.50;1.20;;;23.40;53.60;;;;;;215306;1293;25516;-56
2022/01/28 06:51:25;;;;;;;4.70;1.90;;;23.40;53.80;;;;;;215310;1293;25539;-56
2022/01/28 06:56:39;;;;;;;6.40;1.70;;;23.30;54.50;;;;;;215227;1293;27158;-54
2022/01/28 07:01:42;;;;;;;6.30;1.80;;;23.20;54.20;;;;;;215248;1293;22582;-56
2022/01/28 07:06:46;;;;;;;10.20;1.70;;;23.20;54.80;;;;;;215300;1291;22607;-54
2022/01/28 07:11:53;;;;;;;4.70;2.00;;;23.10;55.50;;;;;;215948;1293;25493;-58
2022/01/28 07:16:58;;;;;;;7.80;2.10;;;23.00;55.30;;;;;;215189;1296;26551;-56
2022/01/28 07:22:01;;;;;;;10.40;1.90;;;23.00;55.90;;;;;;215277;1293;22662;-62
2022/01/28 07:27:06;;;;;;;5.50;1.50;;;22.90;56.40;;;;;;214923;1293;25355;-54
2022/01/28 07:32:22;;;;;;;12.80;1.80;;;22.80;56.00;;;;;;215255;1293;24400;-56
2022/01/28 07:37:29;;;;;;;8.90;2.00;;;22.80;56.70;;;;;;215183;1293;22608;-53
2022/01/28 07:42:41;;;;;;;6.60;1.80;;;22.70;56.80;;;;;;215132;1293;23055;-54
2022/01/28 07:47:47;;;;;;;9.00;2.00;;;22.70;56.70;;;;;;215330;1294;22593;-56
2022/01/28 07:52:52;;;;;;;5.00;1.20;;;22.60;56.70;;;;;;215260;1296;22599;-53
2022/01/28 07:57:58;;;;;;;5.00;1.50;;;22.50;56.60;;;;;;215310;1293;25364;-57
2022/01/28 08:03:01;;;;;;;8.80;1.90;;;22.40;57.90;;;;;;214981;1294;25308;-56
2022/01/28 08:08:11;;;;;;;4.20;1.50;;;22.40;56.90;;;;;;215326;1293;22583;-54
2022/01/28 08:13:16;;;;;;;3.60;1.30;;;22.30;56.60;;;;;;215234;1293;22675;-53
2022/01/28 08:18:30;;;;;;;6.40;1.90;;;22.20;56.80;;;;;;215056;1296;22637;-55
2022/01/28 08:23:48;;;;;;;4.60;1.50;;;22.20;56.60;;;;;;215332;1293;22598;-54
2022/01/28 08:28:55;;;;;;;6.90;1.30;;;22.10;56.60;;;;;;215161;1296;24433;-57
2022/01/28 08:34:24;;;;;;;7.50;1.50;;;22.10;57.00;;;;;;215400;1293;22588;-54
2022/01/28 08:39:30;;;;;;;5.70;1.60;;;22.00;56.50;;;;;;215234;1296;25443;-54
2022/01/28 08:44:34;;;;;;;3.90;1.20;;;22.00;56.60;;;;;;215269;1293;22709;-55
2022/01/28 08:49:39;;;;;;;4.90;1.20;;;21.90;56.40;;;;;;214932;1294;22599;-54
2022/01/28 08:54:43;;;;;;;4.70;1.50;;;22.00;56.50;;;;;;215286;1294;22653;-55
2022/01/28 08:59:47;;;;;;;3.70;1.30;;;22.10;56.60;;;;;;215490;1293;25740;-55
2022/01/28 09:04:51;;;;;;;3.10;1.20;;;22.40;56.00;;;;;;215308;1296;25309;-55
2022/01/28 09:10:04;;;;;;;3.70;1.20;;;22.60;55.30;;;;;;215393;1295;22763;-55
2022/01/28 09:15:09;;;;;;;6.00;1.40;;;22.80;55.10;;;;;;215333;1293;22679;-55
2022/01/28 09:20:32;;;;;;;5.40;1.60;;;22.90;54.60;;;;;;215103;1293;22613;-55
2022/01/28 09:25:44;;;;;;;3.20;1.20;;;22.90;54.10;;;;;;215145;1293;22586;-56
2022/01/28 09:30:49;;;;;;;7.30;1.30;;;22.90;53.90;;;;;;215136;1296;22576;-55
2022/01/28 09:35:54;;;;;;;5.30;1.50;;;22.90;53.80;;;;;;214889;1296;22516;-57
2022/01/28 09:41:06;;;;;;;5.30;1.20;;;23.00;53.70;;;;;;215101;1296;23822;-57
2022/01/28 09:46:12;;;;;;;3.50;1.20;;;23.00;53.60;;;;;;215083;1293;22931;-55
2022/01/28 09:51:17;;;;;;;3.40;1.50;;;23.10;53.40;;;;;;215240;1294;22707;-56
2022/01/28 09:56:23;;;;;;;4.90;1.30;;;23.00;53.30;;;;;;215258;1295;24826;-57
2022/01/28 10:01:28;;;;;;;2.60;1.10;;;23.00;53.10;;;;;;215138;1293;22620;-56
2022/01/28 10:06:36;;;;;;;4.00;1.30;;;23.10;53.10;;;;;;215122;1293;22599;-56
2022/01/28 10:11:44;;;;;;;3.10;1.30;;;23.20;52.80;;;;;;214976;1293;25443;-56
2022/01/28 10:16:59;;;;;;;7.90;1.40;;;23.20;53.00;;;;;;215388;1293;22595;-56
2022/01/28 10:22:23;;;;;;;3.30;1.20;;;23.20;52.50;;;;;;215398;1293;22741;-53
2022/01/28 10:28:07;;;;;;;3.50;1.10;;;23.30;52.10;;;;;;215329;1293;22598;-54
2022/01/28 10:33:26;;;;;;;5.60;1.50;;;23.30;51.80;;;;;;215575;1293;26712;-57
2022/01/28 10:38:41;;;;;;;3.20;1.30;;;23.30;51.60;;;;;;215083;1293;26812;-57
2022/01/28 10:43:55;;;;;;;;;;;23.30;52.30;;;;;;215262;1293;22615;-56
2022/01/28 10:49:05;;;;;;;6.30;1.40;;;23.30;51.90;;;;;;215265;1293;23010;-55
2022/01/28 10:54:12;;;;;;;3.70;1.50;;;23.30;51.80;;;;;;215738;1293;22566;-56
2022/01/28 10:59:19;;;;;;;2.80;1.10;;;23.30;51.80;;;;;;215398;1293;23095;-56
2022/01/28 11:04:23;;;;;;;3.60;1.40;;;23.40;51.70;;;;;;215612;1293;24283;-55
2022/01/28 11:09:30;;;;;;;4.00;1.50;;;23.40;51.60;;;;;;215715;1293;22831;-56
2022/01/28 11:14:44;;;;;;;4.10;1.70;;;23.40;51.60;;;;;;215672;1293;25679;-56
2022/01/28 11:19:55;;;;;;;3.00;1.20;;;23.50;51.50;;;;;;215432;1293;25645;-54
2022/01/28 11:25:35;;;;;;;3.90;1.40;;;23.50;51.80;;;;;;215690;1293;22576;-55
2022/01/28 11:30:48;;;;;;;5.30;1.50;;;23.50;51.20;;;;;;215258;1293;22585;-56
2022/01/28 11:35:54;;;;;;;5.10;1.30;;;23.50;51.00;;;;;;215236;1293;22580;-55
2022/01/28 11:41:05;;;;;;;3.00;1.40;;;23.50;51.40;;;;;;215415;1293;22589;-55
2022/01/28 11:46:31;;;;;;;3.10;1.20;;;23.50;51.30;;;;;;215263;1293;22573;-57
2022/01/28 11:51:38;;;;;;;4.80;1.40;;;23.50;51.40;;;;;;215217;1293;25354;-54
2022/01/28 11:57:04;;;;;;;3.90;1.50;;;23.50;51.60;;;;;;215676;1293;22602;-52
2022/01/28 12:02:10;;;;;;;3.70;1.40;;;23.60;51.10;;;;;;215037;1298;22603;-55
2022/01/28 12:07:22;;;;;;;4.30;1.60;;;23.50;50.80;;;;;;215807;1293;22654;-56
2022/01/28 12:12:41;;;;;;;3.60;1.40;;;23.60;51.10;;;;;;215527;1293;22655;-55
2022/01/28 12:17:49;;;;;;;3.00;1.60;;;23.60;50.90;;;;;;215590;1293;22768;-57
2022/01/28 12:23:25;;;;;;;3.10;1.40;;;23.60;50.80;;;;;;215487;1293;22643;-56
2022/01/28 12:28:42;;;;;;;3.10;1.50;;;23.50;50.60;;;;;;215571;1293;25471;-56
2022/01/28 12:34:15;;;;;;;2.10;1.30;;;23.60;50.60;;;;;;215271;1297;26268;-52
2022/01/28 12:39:36;;;;;;;4.50;1.30;;;23.60;50.50;;;;;;215545;1294;25571;-54
2022/01/28 12:44:52;;;;;;;3.00;1.20;;;23.60;50.50;;;;;;215607;1293;22768;-57
2022/01/28 12:50:03;;;;;;;3.10;1.20;;;23.60;50.40;;;;;;215505;1293;22575;-56
2022/01/28 12:55:10;;;;;;;2.40;1.20;;;23.60;50.40;;;;;;215608;1293;22804;-57
2022/01/28 13:00:16;;;;;;;3.50;1.60;;;23.60;50.20;;;;;;215315;1296;22617;-54
2022/01/28 13:05:37;;;;;;;3.70;1.30;;;23.60;50.10;;;;;;215465;1294;23108;-52
2022/01/28 13:10:55;;;;;;;2.70;1.10;;;23.60;50.10;;;;;;215333;1297;24689;-56
2022/01/28 13:16:35;;;;;;;2.40;1.20;;;23.60;50.10;;;;;;215157;1293;24771;-53
2022/01/28 13:21:48;;;;;;;5.40;1.50;;;23.60;49.70;;;;;;215216;1294;24482;-55
2022/01/28 13:27:10;;;;;;;2.10;1.00;;;23.60;50.10;;;;;;215361;1295;22570;-57
2022/01/28 13:32:32;;;;;;;2.60;1.10;;;23.60;50.00;;;;;;215402;1297;25365;-54
2022/01/28 13:37:46;;;;;;;2.60;1.30;;;23.60;49.40;;;;;;215332;1296;23909;-56
2022/01/28 13:43:06;;;;;;;3.20;1.60;;;23.60;50.00;;;;;;215500;1294;22638;-57
2022/01/28 13:48:20;;;;;;;4.10;2.30;;;23.60;50.10;;;;;;215171;1294;24457;-56
2022/01/28 13:59:25;;;;;;;6.10;3.80;;;23.60;49.90;;;;;;215178;1297;24476;-52
2022/01/28 14:04:37;;;;;;;6.90;3.90;;;23.60;49.90;;;;;;215277;1296;25389;-57
2022/01/28 14:10:04;;;;;;;7.70;3.90;;;23.70;49.90;;;;;;215358;1296;24269;-57
2022/01/28 14:15:49;;;;;;;5.80;2.90;;;23.70;49.70;;;;;;215182;1296;22703;-56
2022/01/28 14:20:58;;;;;;;5.60;2.70;;;23.70;49.60;;;;;;215492;1298;23156;-55
2022/01/28 14:26:06;;;;;;;4.90;2.40;;;23.70;49.80;;;;;;215283;1293;23094;-55
2022/01/28 14:31:20;;;;;;;5.00;2.60;;;23.70;49.60;;;;;;215837;1298;22669;-53
2022/01/28 14:36:35;;;;;;;4.60;2.60;;;23.60;49.30;;;;;;215118;1294;25291;-57
2022/01/28 14:41:50;;;;;;;4.60;2.20;;;23.50;49.30;;;;;;215003;1293;23233;-56
2022/01/28 14:47:04;;;;;;;3.80;2.20;;;23.40;49.50;;;;;;215096;1296;22699;-57
2022/01/28 14:52:29;;;;;;;4.00;2.40;;;23.40;49.90;;;;;;214973;1296;22624;-56
2022/01/28 14:57:39;;;;;;;4.50;2.20;;;23.30;49.80;;;;;;215265;1299;24380;-57
2022/01/28 15:02:55;;;;;;;;;;;23.30;50.30;;;;;;215291;1294;22664;-56
2022/01/28 15:08:11;;;;;;;4.50;2.60;;;23.10;50.40;;;;;;215374;1296;24981;-55
2022/01/28 15:13:17;;;;;;;4.60;2.30;;;22.90;50.50;;;;;;215115;1295;23133;-54
2022/01/28 15:18:21;;;;;;;4.50;2.40;;;22.90;50.40;;;;;;215153;1296;22646;-57
2022/01/28 15:23:25;;;;;;;4.40;2.40;;;22.80;50.50;;;;;;215169;1294;22764;-55
2022/01/28 15:28:37;;;;;;;4.20;2.30;;;22.80;50.70;;;;;;215328;1295;25555;-55
2022/01/28 15:39:09;;;;;;;4.70;2.40;;;22.60;51.10;;;;;;215305;1297;23954;-53
2022/01/28 15:44:12;;;;;;;4.40;2.20;;;22.50;51.50;;;;;;215394;1296;22668;-56
2022/01/28 15:49:16;;;;;;;11.00;2.50;;;22.40;51.20;;;;;;215274;1297;25589;-56
2022/01/28 15:54:20;;;;;;;4.40;2.30;;;22.30;50.90;;;;;;215442;1298;22573;-60
2022/01/28 15:59:27;;;;;;;12.30;3.40;;;22.40;50.80;;;;;;214946;1295;25568;-57
2022/01/28 16:04:35;;;;;;;6.40;2.50;;;22.40;50.60;;;;;;214464;1294;22583;-58
2022/01/28 16:09:47;;;;;;;6.00;2.30;;;22.30;51.20;;;;;;214996;1296;25410;-59
2022/01/28 16:15:06;;;;;;;6.50;2.30;;;22.50;51.20;;;;;;215058;1293;22577;-59
2022/01/28 16:20:33;;;;;;;22.70;3.80;;;22.80;50.30;;;;;;215055;1296;25340;-53
2022/01/28 16:25:42;;;;;;;25.60;3.70;;;23.10;49.70;;;;;;215021;1296;22968;-60
2022/01/28 16:31:07;;;;;;;15.60;3.20;;;23.30;49.20;;;;;;215130;1296;23334;-55
2022/01/28 16:36:12;;;;;;;12.00;3.40;;;23.20;45.10;;;;;;214612;1293;24301;-52
2022/01/28 16:41:16;;;;;;;12.90;3.20;;;23.10;46.20;;;;;;215568;1295;27850;-62
2022/01/28 16:46:23;;;;;;;15.80;3.20;;;23.40;46.40;;;;;;214775;1293;25656;-63
2022/01/28 16:51:32;;;;;;;14.60;3.30;;;23.60;46.60;;;;;;214638;1293;24279;-59
2022/01/28 16:56:41;;;;;;;14.10;2.90;;;23.60;46.80;;;;;;214552;1293;22582;-55
2022/01/28 17:01:47;;;;;;;13.10;2.80;;;23.80;46.80;;;;;;217635;1293;22641;-53
2022/01/28 17:06:51;;;;;;;8.00;2.40;;;23.70;46.70;;;;;;214981;1293;25566;-56
2022/01/28 17:17:12;;;;;;;15.90;3.20;;;23.90;48.00;;;;;;215126;1294;25621;-51
2022/01/28 17:22:15;;;;;;;16.10;2.60;;;24.00;48.50;;;;;;215069;1296;24303;-51
2022/01/28 17:27:19;;;;;;;9.00;2.80;;;24.00;48.50;;;;;;214551;1296;25417;-56
2022/01/28 17:32:29;;;;;;;12.30;2.30;;;24.00;48.00;;;;;;214869;1293;22631;-56
2022/01/28 17:37:44;;;;;;;10.90;2.60;;;24.10;48.60;;;;;;215133;1293;22934;-56
2022/01/28 17:42:51;;;;;;;13.10;2.50;;;24.00;48.30;;;;;;214882;1294;24390;-56
2022/01/28 17:48:06;;;;;;;5.50;2.00;;;23.90;48.70;;;;;;213600;1303;542962;-57
2022/01/28 17:53:14;;;;;;;9.20;2.50;;;23.80;48.80;;;;;;219253;1277;25761;-56
2022/01/28 17:58:47;;;;;;;8.10;2.40;;;23.70;49.50;;;;;;216428;1277;3224052;-56
2022/01/28 18:04:01;;;;;;;11.50;3.40;;;23.60;49.60;;;;;;219687;1275;25477;-57
2022/01/28 18:09:05;;;;;;;6.60;2.50;;;23.50;49.90;;;;;;219199;1277;22590;-56
2022/01/28 18:14:09;;;;;;;6.00;2.20;;;23.30;50.10;;;;;;219289;1278;22551;-57
2022/01/28 18:19:12;;;;;;;11.10;2.70;;;23.20;50.50;;;;;;219157;1274;25614;-55
2022/01/28 18:24:17;;;;;;;8.40;2.00;;;23.10;50.60;;;;;;219023;1277;22805;-62
2022/01/28 18:29:28;;;;;;;7.40;1.90;;;23.00;50.80;;;;;;219804;1271;25421;-57
2022/01/28 18:34:33;;;;;;;12.70;2.70;;;22.80;51.50;;;;;;220238;1271;22618;-55
2022/01/28 18:39:37;;;;;;;13.60;2.40;;;22.70;54.80;;;;;;219407;1271;24240;-52
2022/01/28 18:44:49;;;;;;;10.70;2.20;;;22.70;55.20;;;;;;219932;1271;22543;-57
2022/01/28 18:49:53;;;;;;;9.80;2.40;;;22.50;55.70;;;;;;219189;1271;25416;-56
2022/01/28 18:54:57;;;;;;;10.40;2.50;;;22.40;55.90;;;;;;219376;1274;25519;-55
2022/01/28 19:00:00;;;;;;;5.60;2.70;;;22.30;56.00;;;;;;219609;1274;24277;-55
2022/01/28 19:05:08;;;;;;;7.30;2.30;;;22.20;56.00;;;;;;219428;1274;25346;-55
2022/01/28 19:10:20;;;;;;;7.60;2.20;;;22.10;56.40;;;;;;219478;1271;22555;-55
2022/01/28 19:15:24;;;;;;;8.60;1.90;;;22.10;56.00;;;;;;219489;1271;26290;-55
2022/01/28 19:20:28;;;;;;;7.00;2.00;;;22.00;55.90;;;;;;219719;1271;24415;-52
2022/01/28 19:25:33;;;;;;;7.50;2.00;;;22.00;55.90;;;;;;219868;1271;22686;-55
2022/01/28 19:30:37;;;;;;;7.20;2.10;;;22.00;55.30;;;;;;219541;1271;25433;-55
2022/01/28 19:35:43;;;;;;;8.80;2.30;;;22.00;55.90;;;;;;219530;1271;24278;-53
2022/01/28 19:40:49;;;;;;;6.80;2.00;;;21.90;56.20;;;;;;219522;1271;24299;-53
2022/01/28 19:46:01;;;;;;;11.40;2.50;;;21.90;56.70;;;;;;219608;1271;23167;-56
2022/01/28 19:51:13;;;;;;;8.50;1.90;;;22.00;57.00;;;;;;219552;1274;22547;-61
2022/01/28 19:56:20;;;;;;;5.50;2.10;;;21.90;58.40;;;;;;219975;1274;22584;-57
2022/01/28 20:01:24;;;;;;;6.30;2.10;;;21.80;58.40;;;;;;220070;1271;22543;-58
2022/01/28 20:06:28;;;;;;;8.80;2.10;;;21.80;58.20;;;;;;219786;1271;23914;-59
2022/01/28 20:11:34;;;;;;;12.40;2.20;;;21.90;58.30;;;;;;219782;1271;22564;-58
2022/01/28 20:16:42;;;;;;;9.20;2.50;;;21.80;57.80;;;;;;219115;1272;22554;-60
2022/01/28 20:21:46;;;;;;;10.40;2.60;;;21.80;57.80;;;;;;220559;1272;22548;-58
2022/01/28 20:26:54;;;;;;;7.50;2.20;;;21.80;57.70;;;;;;219734;1271;22785;-60
2022/01/28 20:31:58;;;;;;;9.80;2.00;;;21.70;58.00;;;;;;219810;1271;22541;-57
2022/01/28 20:37:04;;;;;;;6.40;2.10;;;21.70;57.70;;;;;;219746;1271;25256;-57
2022/01/28 20:42:09;;;;;;;8.60;2.00;;;22.00;56.90;;;;;;219846;1274;22560;-56
2022/01/28 20:47:17;;;;;;;4.40;2.00;;;22.40;55.70;;;;;;219857;1271;22573;-57
2022/01/28 20:52:25;;;;;;;8.60;2.40;;;22.70;54.70;;;;;;219568;1274;22547;-59
2022/01/28 20:57:29;;;;;;;5.80;1.90;;;23.00;54.00;;;;;;220343;1268;25582;-57
2022/01/28 21:02:39;;;;;;;4.50;1.90;;;23.20;53.50;;;;;;220104;1268;24244;-58
2022/01/28 21:07:46;;;;;;;6.10;1.90;;;23.20;53.20;;;;;;220375;1271;22763;-63
2022/01/28 21:12:51;;;;;;;7.80;2.00;;;23.30;53.30;;;;;;220527;1268;22654;-59
2022/01/28 21:17:57;;;;;;;9.40;2.30;;;23.30;53.10;;;;;;220505;1268;22587;-63
2022/01/28 21:23:04;;;;;;;11.50;2.00;;;23.50;52.90;;;;;;220512;1268;25719;-63
2022/01/28 21:28:18;;;;;;;13.30;2.30;;;23.50;53.20;;;;;;220622;1268;24153;-63
2022/01/28 21:33:25;;;;;;;7.30;1.60;;;23.50;52.60;;;;;;220467;1268;22560;-64
2022/01/28 21:38:40;;;;;;;6.40;2.10;;;23.50;52.80;;;;;;220403;1268;26618;-61
2022/01/28 21:43:51;;;;;;;10.60;1.80;;;23.60;52.10;;;;;;220534;1268;24229;-58
2022/01/28 21:48:57;;;;;;;10.80;2.30;;;23.60;52.00;;;;;;220142;1271;25395;-58
2022/01/28 21:54:02;;;;;;;10.90;2.10;;;23.70;52.30;;;;;;220357;1268;23952;-59
2022/01/28 21:59:08;;;;;;;5.80;2.30;;;23.60;52.00;;;;;;220686;1268;24227;-59
2022/01/28 22:04:22;;;;;;;8.10;2.60;;;23.60;51.10;;;;;;220334;1268;22611;-61
2022/01/28 22:09:27;;;;;;;4.20;1.80;;;23.70;51.00;;;;;;219869;1269;22608;-58
2022/01/28 22:14:39;;;;;;;5.80;2.10;;;23.60;50.80;;;;;;220406;1268;22562;-58
2022/01/28 22:20:00;;;;;;;5.10;2.20;;;23.60;50.90;;;;;;220221;1268;25282;-59
2022/01/28 22:25:13;;;;;;;10.10;1.90;;;23.60;50.60;;;;;;220435;1268;24385;-57
2022/01/28 22:30:18;;;;;;;8.60;2.20;;;23.80;51.30;;;;;;220096;1268;22663;-59
2022/01/28 22:35:25;;;;;;;7.20;2.10;;;23.70;51.30;;;;;;220214;1268;22709;-56
2022/01/28 22:40:30;;;;;;;4.40;2.00;;;23.80;51.20;;;;;;220400;1268;25536;-60
2022/01/28 22:45:47;;;;;;;9.70;2.20;;;23.80;51.10;;;;;;219939;1271;22495;-60
2022/01/28 22:51:05;;;;;;;5.90;2.10;;;23.90;50.90;;;;;;219379;1271;22551;-58
2022/01/28 22:56:23;;;;;;;6.70;2.50;;;24.00;50.80;;;;;;220108;1271;25467;-60
2022/01/28 23:01:29;;;;;;;4.20;1.90;;;24.10;50.60;;;;;;219783;1271;24322;-58
2022/01/28 23:06:39;;;;;;;7.80;1.90;;;24.20;50.60;;;;;;220064;1271;24256;-59
2022/01/28 23:11:43;;;;;;;6.40;2.10;;;24.30;50.80;;;;;;220378;1268;22557;-59
2022/01/28 23:16:47;;;;;;;6.10;2.30;;;24.20;50.10;;;;;;220528;1268;22538;-60
2022/01/28 23:21:52;;;;;;;4.30;2.20;;;24.30;49.90;;;;;;220534;1268;25576;-59
2022/01/28 23:27:00;;;;;;;4.20;1.80;;;24.30;49.90;;;;;;220486;1268;22880;-57
2022/01/28 23:32:06;;;;;;;6.10;2.50;;;24.30;50.20;;;;;;220430;1268;22553;-57
2022/01/28 23:37:15;;;;;;;4.50;2.00;;;24.30;49.70;;;;;;220886;1268;23410;-60
2022/01/28 23:42:39;;;;;;;4.20;1.60;;;24.30;49.70;;;;;;220457;1268;24316;-58
2022/01/28 23:47:48;;;;;;;3.80;1.90;;;24.30;49.80;;;;;;220661;1268;25388;-57
2022/01/28 23:52:52;;;;;;;3.80;1.80;;;24.20;50.30;;;;;;220337;1268;22602;-57
2022/01/28 23:57:56;;;;;;;3.10;1.50;;;24.00;50.20;;;;;;220386;1267;24292;-57
